Airfield :
LOGIN :

Register | Disclaimer

   EN    FR    IT 

 










Legend :    VFR   Marginal VFR   IFR   Intensive IFR   Very Intensive IFR
Visi :
Ceiling :
>= 8 km
>= 3000ft
5 to 8 km
1000 to 3000 ft
1500m to 5 km
500 to 1000 ft
800 to 1500m
200 to 500 ft
< 800m
< 200 ft
Symbols :   Thunderstorms  Fog  Heavy snow  Heavy precipitations  Wind > 20 kt
SIGMETs :     Misc.  Thunderstorms  Icing  Turbulence  Mountain Waves  Volcanic Ashes







- Airport Elevation : 290 ft
- IATA code : LAI
- Download approach charts


LFRO - Lannion

CURRENT METAR :
  • 220400Z AUTO 15005KT CAVOK 06/06 Q1022

EXPIRED METARs :
  • 220330Z AUTO 18004KT CAVOK 06/06 Q1022
  • 220300Z AUTO 18004KT CAVOK 06/06 Q1022
  • 220230Z AUTO 16003KT CAVOK 06/05 Q1022
  • 220200Z AUTO 15003KT CAVOK 06/06 Q1022
  • 220130Z AUTO 16002KT CAVOK 07/06 Q1022

TAF TAF LFRO
Valid from the 21 at 12:00 until the 22 at 12:00 UTC


211100Z 2112/2212 28010KT 9999 SCT010 BKN012
TEMPO 2112/2113 4000 -RA BKN006
BECMG 2113/2115 BKN020
BECMG 2122/2124 19004KT
PROB30
TEMPO 2203/2206 2000 BR
No reported NOTAMs for that airfield.



MET'MAP, your aeronautical weather chart ! - Copyright ORBIFLY December 2007 - Disclaimer

ORBIFLY MET'MAP TEAM :

Programming & Development : Alexandra Zaïnal
Concept & Development : Baudouin d'Aumeries
Co-Development & Prog : Marc-Olivier Méhu
Technical & hardware support : Manuel Goepfert

Contact : metmap@orbifly.com




SOURCES & CREDITS :

   NOAA